aviador You're here:

KAVP Decoded Metar

AVOCA/WILKES B. in PA, USA
Report Time2018-07-21 07:54:00
UTC Time2018-07-21 08:13:04
Flight Rules vfr VFR
WindVRB at 03 kt
Visibility9999 m
Phenomena:N/A
Clouds:N/A
Expected CloudBase > 1,600 ft AGL from Temp-Dew spread
CeilingNone
Temp18°C (ISA +5)
Dew Point14°C (78% RH)
QNH1018 hPa
Density Alt1,578 ft
Elevation955 ft
Report Wrong Elevation
Raw Report
KAVP 210754Z VRB03KT 10SM CLR 18/14 A3007 RMK AO2 SLP176
T01830144=

Extra information for KAVP:More info

Metar Taf Metar & Taf Last 4 Metars F.Rules Stats Wind Profile Meteogram Temp Stats Airport Information Weather charts Add Link Nearby VenuesMetar ALERT Operation Metar Decoded Social comments

AIRNAV info for KAVP